aviador You're here:

KOZW Decoded Metar

HOWELL in MI, USA
Report Time2018-01-21 18:15:00
UTC Time2018-01-21 18:35:26
Flight Rules mvfr MVFR
WindCalm
Visibility6437 m
Phenomena:Mist
Clouds:Overcast 021 Hf
Expected CloudBase > 400 ft AGL from Temp-Dew spread
Ceiling2,100 ft
Temp04°C (ISA -9)
Dew Point03°C (93% RH)
AAT2.5°C
QNH1016 hPa
Density Alt-135 ft
Elevation961 ft
Report Wrong Elevation
Raw Report
METAR KOZW 211815Z AUTO 00000KT 4SM BR OVC021 04/03 A3000 RMK AO2 T00370030=

Extra information for KOZW:More info

Metar Taf Metar & Taf Last 4 Metars F.Rules Stats Wind Profile Meteogram Temp Stats Airport Information Weather charts Add Link Nearby VenuesMetar ALERT Operation Metar Decoded Social comments

AIRNAV info for KOZW